Aeroporto :
LOGIN :

Iscrizione | Disclaimer

   EN    FR    IT 

 










Sommario :    VFR   VFR Marginale   IFR   IFR Intensivo   IFR Molto Intensivo
Visibilità : 
Base nubi : 
>= 8 km
>= 3000ft
5 / 8 km
1000 / 3000 ft
1500m / 5 km
500 / 1000 ft
800 / 1500m
200 / 500 ft
< 800m
< 200 ft
Simboli :   Temporali  Nebbia  Neve Forte  Precipitazioni Forti  Vento > 20 kt
SIGMETs :   Varie  Temporali  Ghiacco  Turbolenza  Onda orograficha  Ceneri Vulcaniche






- Altitudine del aeroporto : 56 ft
- Codice IATA : BZR


LFMU - Beziers / Vias

ULTIMO METAR :
  • 040230Z AUTO 31013KT CAVOK 21/12 Q1014

METARs OBSOLETI :
  • 040200Z AUTO 30011KT CAVOK 21/11 Q1014
  • 040130Z AUTO 31012KT CAVOK 21/11 Q1015
  • 040100Z AUTO 32014KT CAVOK 22/11 Q1014
  • 040030Z AUTO 32017KT CAVOK 22/11 Q1014
  • 040000Z AUTO 31011KT CAVOK 22/11 Q1014

TAF TAF LFMU
Valido dal 04 a 03 ore il 05 a 03 ore UTC


040200Z 0403/0503 32012KT CAVOK
BECMG 0408/0410 33016G29KT
BECMG 0418/0421 32012KT
ATIS : +33 4 67 90 88 88



MetMap, La meteo Aeronautica in un colpo d'occhio ! - Copyright ORBIFLY Dicembre 2007 - Disclaimer

ORBIFLY MET'MAP TEAM :

Programmazione e sviluppo : Alexandra Zaïnal
Concezione : Baudouin d'Aumeries
Aiuto per la programmazione : Marc-Olivier Méhu
Supporto tecnico e logistico : Manuel Goepfert
Aiuto per la traduzione : Arnaldo La Scala

Contatto : metmap@orbifly.com




FONTI E CREDITI :

   NOAA